プンタアレナス の空港の天気 - METARとTAF

プンタアレナス空港 ( SCCI / PUQ ) - チリ プンタアレナス
飛行場実況気象(Metar)
観測時間12/14 03:00 CLST (12/14 06:00 UTC)
風向・風速北西 4m/s
視程10km以上
天気現象
なし
気温3℃
湿度75%
気圧1005hPa
METARSCCI 140600Z 32007KT CAVOK 03/M01 Q1005 NOSIG
過去の天気等 Google飛行場航空写真 Wunderground天気予報

過去48時間のMETAR

飛行場予報(TAF)
発表時間: 12/14 01:38 CLST (12/14 04:38 UTC)
予報対象時間: 14日3時 CLST ~ 15日3時 CLST
風向・風速西 8m/s
視程10km以上
少しの雲 雲底高度 1220m
14日7時 CLST ~ 14日9時 CLST に徐々に
風向・風速西北西 10m/s 瞬間風速 15m/s
視程9000m
天気現象弱いしゅう雨
少しの雲 雲底高度 910m
全天の8割程度の雲 雲底高度 1370m
14日11時 CLST ~ 14日13時 CLST に徐々に
風向・風速西北西 15m/s 瞬間風速 21m/s
14日14時 CLST ~ 14日19時 CLST に一時的に
風向・風速西 18m/s 瞬間風速 24m/s
15日0時 CLST ~ 15日2時 CLST に徐々に
風向・風速北北西 17m/s 瞬間風速 22m/s
TAF SCCI 140438Z 1406/1506 28015KT 9999 FEW040 TX13/1418Z TN03/1406Z
BECMG 1410/1412 30020G30KT 9000 -SHRA FEW030 BKN045
BECMG 1414/1416 29030G40KT
TEMPO 1417/1422 28035G47KT
BECMG 1503/1505 33033G43KT